createdAt,value
2023-03-29T00:00:18.972Z,1004.92
2023-03-29T00:01:36.150Z,1004.87
2023-03-29T00:02:19.978Z,1004.88
2023-03-29T00:03:19.234Z,1004.82
2023-03-29T00:04:18.957Z,1004.82
2023-03-29T00:05:18.924Z,1004.86
2023-03-29T00:06:18.880Z,1004.88
2023-03-29T00:07:18.872Z,1004.86
2023-03-29T00:08:18.855Z,1004.81
2023-03-29T00:09:18.832Z,1004.81
2023-03-29T00:10:18.843Z,1004.80
2023-03-29T00:11:18.812Z,1004.78
2023-03-29T00:12:18.792Z,1004.75
2023-03-29T00:13:18.807Z,1004.74
2023-03-29T00:14:18.796Z,1004.70
2023-03-29T00:15:18.777Z,1004.67
2023-03-29T00:16:18.772Z,1004.62
2023-03-29T00:17:18.753Z,1004.54
2023-03-29T00:18:18.728Z,1004.53
2023-03-29T00:19:18.713Z,1004.50
2023-03-29T00:20:18.728Z,1004.49
2023-03-29T00:21:18.687Z,1004.51
2023-03-29T00:22:18.669Z,1004.48
2023-03-29T00:23:18.667Z,1004.49
2023-03-29T00:24:18.648Z,1004.49
2023-03-29T00:25:18.657Z,1004.47
2023-03-29T00:26:18.635Z,1004.44
2023-03-29T00:27:18.613Z,1004.42
2023-03-29T00:28:18.589Z,1004.41
2023-03-29T00:29:18.579Z,1004.40
2023-03-29T00:30:18.592Z,1004.40
2023-03-29T00:31:18.623Z,1004.38
2023-03-29T00:32:18.544Z,1004.41
2023-03-29T00:33:18.533Z,1004.39
2023-03-29T00:34:18.524Z,1004.39
2023-03-29T00:35:18.528Z,1004.36
2023-03-29T00:36:18.503Z,1004.37
2023-03-29T00:37:18.511Z,1004.36
2023-03-29T00:38:18.468Z,1004.36
2023-03-29T00:39:18.453Z,1004.35
2023-03-29T00:40:18.471Z,1004.34
2023-03-29T00:41:18.423Z,1004.34
2023-03-29T00:42:18.424Z,1004.31
2023-03-29T00:43:18.408Z,1004.32
2023-03-29T00:44:18.382Z,1004.31
2023-03-29T00:45:25.585Z,1004.24
2023-03-29T00:46:18.402Z,1004.25
2023-03-29T00:47:18.352Z,1004.24
2023-03-29T00:48:18.329Z,1004.23
2023-03-29T00:49:18.322Z,1004.26
2023-03-29T00:50:18.316Z,1004.25
2023-03-29T00:51:18.328Z,1004.25
2023-03-29T00:52:18.283Z,1004.21
2023-03-29T00:53:18.275Z,1004.20
2023-03-29T00:54:18.254Z,1004.19
2023-03-29T00:55:18.253Z,1004.18
2023-03-29T00:56:18.250Z,1004.15
2023-03-29T00:57:18.276Z,1004.16
2023-03-29T00:58:18.209Z,1004.11
2023-03-29T00:59:18.214Z,1004.14
2023-03-29T01:00:18.180Z,1004.11
2023-03-29T01:01:18.196Z,1004.08
2023-03-29T01:02:18.205Z,1004.11
2023-03-29T01:03:18.212Z,1004.11
2023-03-29T01:04:18.149Z,1004.05
2023-03-29T01:05:18.114Z,1004.03
2023-03-29T01:06:18.131Z,1004.04
2023-03-29T01:07:18.263Z,1004.03
2023-03-29T01:08:18.229Z,1004.02
2023-03-29T01:09:18.078Z,1003.96
2023-03-29T01:10:18.060Z,1003.95
2023-03-29T01:11:18.059Z,1003.95
2023-03-29T01:12:18.025Z,1003.95
2023-03-29T01:13:18.022Z,1003.94
2023-03-29T01:14:18.004Z,1003.95
2023-03-29T01:15:18.017Z,1003.92
2023-03-29T01:16:18.040Z,1003.90
2023-03-29T01:17:17.958Z,1003.87
2023-03-29T01:18:17.948Z,1003.86
2023-03-29T01:19:17.939Z,1003.84
2023-03-29T01:20:17.927Z,1003.86
2023-03-29T01:21:17.946Z,1003.87
2023-03-29T01:22:17.987Z,1003.82
2023-03-29T01:23:17.890Z,1003.83
2023-03-29T01:24:17.908Z,1003.76
2023-03-29T01:25:17.859Z,1003.76
2023-03-29T01:26:17.859Z,1003.72
2023-03-29T01:27:17.832Z,1003.71
2023-03-29T01:28:17.824Z,1003.68
2023-03-29T01:29:17.807Z,1003.65
2023-03-29T01:30:17.801Z,1003.65
2023-03-29T01:31:17.824Z,1003.58
2023-03-29T01:32:17.790Z,1003.56
2023-03-29T01:33:17.759Z,1003.54
2023-03-29T01:34:17.739Z,1003.58
2023-03-29T01:35:17.732Z,1003.55
2023-03-29T01:36:17.760Z,1003.58
2023-03-29T01:37:17.724Z,1003.59
2023-03-29T01:38:17.687Z,1003.59
2023-03-29T01:39:17.677Z,1003.56
2023-03-29T01:40:17.670Z,1003.55
2023-03-29T01:41:17.658Z,1003.57
2023-03-29T01:42:17.643Z,1003.62
2023-03-29T01:43:17.628Z,1003.61
2023-03-29T01:44:17.604Z,1003.60
2023-03-29T01:45:17.627Z,1003.59
2023-03-29T01:46:17.645Z,1003.62
2023-03-29T01:47:17.606Z,1003.59
2023-03-29T01:48:17.555Z,1003.58
2023-03-29T01:49:17.556Z,1003.56
2023-03-29T01:50:17.521Z,1003.51
2023-03-29T01:51:17.515Z,1003.53
2023-03-29T01:52:17.605Z,1003.56
2023-03-29T01:53:17.581Z,1003.56
2023-03-29T01:54:17.511Z,1003.57
2023-03-29T01:55:17.476Z,1003.60
2023-03-29T01:56:17.450Z,1003.59
2023-03-29T01:57:17.498Z,1003.63
2023-03-29T01:58:17.441Z,1003.60
2023-03-29T01:59:17.440Z,1003.58
2023-03-29T02:00:17.423Z,1003.49
2023-03-29T02:01:17.451Z,1003.48
2023-03-29T02:02:17.408Z,1003.41
2023-03-29T02:03:17.523Z,1003.42
2023-03-29T02:04:17.341Z,1003.45
2023-03-29T02:05:17.373Z,1003.44
2023-03-29T02:06:17.424Z,1003.43
2023-03-29T02:07:17.406Z,1003.44
2023-03-29T02:08:17.309Z,1003.43
2023-03-29T02:09:17.285Z,1003.46
2023-03-29T02:10:17.290Z,1003.46
2023-03-29T02:11:17.414Z,1003.46
2023-03-29T02:12:17.239Z,1003.43
2023-03-29T02:13:17.226Z,1003.45
2023-03-29T02:14:17.214Z,1003.42
2023-03-29T02:15:17.210Z,1003.41
2023-03-29T02:16:17.319Z,1003.40
2023-03-29T02:17:17.196Z,1003.40
2023-03-29T02:18:17.161Z,1003.37
2023-03-29T02:19:17.176Z,1003.36
2023-03-29T02:20:17.131Z,1003.40
2023-03-29T02:21:17.139Z,1003.36
2023-03-29T02:22:17.169Z,1003.33
2023-03-29T02:23:17.106Z,1003.33
2023-03-29T02:24:17.081Z,1003.28
2023-03-29T02:25:17.084Z,1003.31
2023-03-29T02:26:17.080Z,1003.35
2023-03-29T02:27:17.072Z,1003.36
2023-03-29T02:28:17.088Z,1003.39
2023-03-29T02:29:17.037Z,1003.36
2023-03-29T02:30:17.055Z,1003.39
2023-03-29T02:31:17.062Z,1003.37
2023-03-29T02:32:16.977Z,1003.35
2023-03-29T02:33:17.040Z,1003.35
2023-03-29T02:34:16.964Z,1003.33
2023-03-29T02:35:16.960Z,1003.31
2023-03-29T02:36:17.000Z,1003.31
2023-03-29T02:37:16.917Z,1003.26
2023-03-29T02:38:16.912Z,1003.26
2023-03-29T02:39:16.899Z,1003.24
2023-03-29T02:40:16.874Z,1003.27
2023-03-29T02:41:16.873Z,1003.27
2023-03-29T02:42:16.846Z,1003.25
2023-03-29T02:43:16.862Z,1003.20
2023-03-29T02:44:16.815Z,1003.18
2023-03-29T02:45:16.813Z,1003.13
2023-03-29T02:46:16.817Z,1003.15
2023-03-29T02:47:16.786Z,1003.18
2023-03-29T02:48:16.836Z,1003.17
2023-03-29T02:49:16.776Z,1003.19
2023-03-29T02:50:16.780Z,1003.18
2023-03-29T02:51:19.364Z,1003.13
2023-03-29T02:52:16.709Z,1003.12
2023-03-29T02:53:16.714Z,1003.12
2023-03-29T02:54:16.698Z,1003.12
2023-03-29T02:55:16.687Z,1003.15
2023-03-29T02:56:16.702Z,1003.09
2023-03-29T02:57:16.724Z,1003.09
2023-03-29T02:58:16.688Z,1003.09
2023-03-29T02:59:16.647Z,1003.05
2023-03-29T03:00:16.698Z,1003.06
2023-03-29T03:01:16.681Z,1003.06
2023-03-29T03:02:16.687Z,1003.03
2023-03-29T03:03:16.690Z,1003.03
2023-03-29T03:04:16.785Z,1003.00
2023-03-29T03:05:16.628Z,1002.97
2023-03-29T03:06:16.525Z,1002.94
2023-03-29T03:07:16.515Z,1002.97
2023-03-29T03:08:16.524Z,1002.97
2023-03-29T03:09:16.504Z,1003.00
2023-03-29T03:10:16.482Z,1002.95
2023-03-29T03:11:16.474Z,1002.94
2023-03-29T03:12:16.448Z,1002.97
2023-03-29T03:13:16.464Z,1002.94
2023-03-29T03:14:16.424Z,1002.95
2023-03-29T03:15:16.435Z,1002.91
2023-03-29T03:16:16.426Z,1002.85
2023-03-29T03:17:16.409Z,1002.86
2023-03-29T03:18:16.377Z,1002.83
2023-03-29T03:19:16.486Z,1002.84
2023-03-29T03:20:16.368Z,1002.82
2023-03-29T03:21:16.390Z,1002.82
2023-03-29T03:22:16.318Z,1002.83
2023-03-29T03:23:16.426Z,1002.83
2023-03-29T03:24:16.341Z,1002.80
2023-03-29T03:25:16.306Z,1002.83
2023-03-29T03:26:16.285Z,1002.78
2023-03-29T03:27:16.330Z,1002.80
2023-03-29T03:28:16.274Z,1002.82
2023-03-29T03:29:16.251Z,1002.78
2023-03-29T03:30:16.239Z,1002.80
2023-03-29T03:31:16.231Z,1002.77
2023-03-29T03:32:16.294Z,1002.79
2023-03-29T03:33:16.198Z,1002.79
2023-03-29T03:34:16.205Z,1002.78
2023-03-29T03:35:16.214Z,1002.75
2023-03-29T03:36:16.159Z,1002.75
2023-03-29T03:37:16.135Z,1002.78
2023-03-29T03:38:16.115Z,1002.75
2023-03-29T03:39:16.125Z,1002.73
2023-03-29T03:40:16.152Z,1002.72
2023-03-29T03:41:16.102Z,1002.74
2023-03-29T03:42:16.065Z,1002.75
2023-03-29T03:43:16.102Z,1002.72
2023-03-29T03:44:16.060Z,1002.74
2023-03-29T03:45:16.085Z,1002.76
2023-03-29T03:46:16.074Z,1002.73
2023-03-29T03:47:15.990Z,1002.72
2023-03-29T03:48:15.973Z,1002.74
2023-03-29T03:49:15.970Z,1002.72
2023-03-29T03:50:16.068Z,1002.75
2023-03-29T03:51:15.952Z,1002.75
2023-03-29T03:52:15.922Z,1002.69
2023-03-29T03:53:15.918Z,1002.72
2023-03-29T03:54:15.918Z,1002.70
2023-03-29T03:55:15.888Z,1002.65
2023-03-29T03:56:15.866Z,1002.66
2023-03-29T03:57:15.874Z,1002.67
2023-03-29T03:58:15.845Z,1002.65
2023-03-29T03:59:15.859Z,1002.66
2023-03-29T04:00:15.845Z,1002.69
2023-03-29T04:01:15.803Z,1002.70
2023-03-29T04:02:15.821Z,1002.68
2023-03-29T04:03:15.983Z,1002.70
2023-03-29T04:04:15.844Z,1002.65
2023-03-29T04:05:15.775Z,1002.70
2023-03-29T04:06:15.788Z,1002.72
2023-03-29T04:07:15.752Z,1002.74
2023-03-29T04:08:15.755Z,1002.73
2023-03-29T04:09:15.691Z,1002.71
2023-03-29T04:10:15.709Z,1002.62
2023-03-29T04:11:15.670Z,1002.65
2023-03-29T04:12:15.676Z,1002.65
2023-03-29T04:13:15.646Z,1002.60
2023-03-29T04:14:15.637Z,1002.60
2023-03-29T04:15:15.647Z,1002.61
2023-03-29T04:16:15.630Z,1002.58
2023-03-29T04:17:15.591Z,1002.60
2023-03-29T04:18:15.629Z,1002.60
2023-03-29T04:19:15.561Z,1002.62
2023-03-29T04:20:15.573Z,1002.59
2023-03-29T04:21:15.539Z,1002.59
2023-03-29T04:22:15.537Z,1002.61
2023-03-29T04:23:15.510Z,1002.61
2023-03-29T04:24:15.496Z,1002.64
2023-03-29T04:25:15.537Z,1002.61
2023-03-29T04:26:15.468Z,1002.56
2023-03-29T04:27:15.457Z,1002.55
2023-03-29T04:28:15.514Z,1002.54
2023-03-29T04:29:15.429Z,1002.54
2023-03-29T04:30:15.435Z,1002.50
2023-03-29T04:31:15.471Z,1002.49
2023-03-29T04:32:15.412Z,1002.47
2023-03-29T04:33:15.390Z,1002.45
2023-03-29T04:34:15.378Z,1002.45
2023-03-29T04:35:15.395Z,1002.47
2023-03-29T04:36:15.375Z,1002.44
2023-03-29T04:37:15.330Z,1002.44
2023-03-29T04:38:15.332Z,1002.41
2023-03-29T04:39:15.313Z,1002.40
2023-03-29T04:40:15.348Z,1002.39
2023-03-29T04:41:15.275Z,1002.37
2023-03-29T04:42:15.276Z,1002.40
2023-03-29T04:43:15.248Z,1002.43
2023-03-29T04:44:15.253Z,1002.42
2023-03-29T04:45:15.292Z,1002.40
2023-03-29T04:46:15.344Z,1002.41
2023-03-29T04:47:15.202Z,1002.38
2023-03-29T04:48:15.192Z,1002.37
2023-03-29T04:49:15.178Z,1002.35
2023-03-29T04:50:15.191Z,1002.38
2023-03-29T04:51:15.274Z,1002.39
2023-03-29T04:52:15.146Z,1002.37
2023-03-29T04:53:15.131Z,1002.37
2023-03-29T04:54:15.189Z,1002.37
2023-03-29T04:55:15.116Z,1002.40
2023-03-29T04:56:15.091Z,1002.41
2023-03-29T04:57:15.113Z,1002.43
2023-03-29T04:58:15.060Z,1002.39
2023-03-29T04:59:15.044Z,1002.45
2023-03-29T05:00:15.145Z,1002.41
2023-03-29T05:01:15.022Z,1002.42
2023-03-29T05:02:15.003Z,1002.42
2023-03-29T05:03:14.994Z,1002.39
2023-03-29T05:04:15.033Z,1002.42
2023-03-29T05:05:14.986Z,1002.45
2023-03-29T05:06:14.951Z,1002.44
2023-03-29T05:07:14.935Z,1002.44
2023-03-29T05:08:14.935Z,1002.40
2023-03-29T05:09:14.911Z,1002.46
2023-03-29T05:10:14.945Z,1002.44
2023-03-29T05:11:14.884Z,1002.47
2023-03-29T05:12:14.872Z,1002.48
2023-03-29T05:13:14.853Z,1002.44
2023-03-29T05:14:14.849Z,1002.50
2023-03-29T05:15:14.884Z,1002.47
2023-03-29T05:16:14.845Z,1002.51
2023-03-29T05:17:14.804Z,1002.50
2023-03-29T05:18:14.800Z,1002.47
2023-03-29T05:19:14.777Z,1002.46
2023-03-29T05:20:14.791Z,1002.46
2023-03-29T05:21:14.759Z,1002.48
2023-03-29T05:22:14.722Z,1002.49
2023-03-29T05:23:14.725Z,1002.47
2023-03-29T05:24:14.775Z,1002.52
2023-03-29T05:25:14.721Z,1002.50
2023-03-29T05:26:14.687Z,1002.53
2023-03-29T05:27:14.907Z,1002.49
2023-03-29T05:28:14.674Z,1002.50
2023-03-29T05:29:14.652Z,1002.47
2023-03-29T05:30:14.659Z,1002.46
2023-03-29T05:31:16.823Z,1002.45
2023-03-29T05:32:14.827Z,1002.44
2023-03-29T05:33:14.591Z,1002.42
2023-03-29T05:34:14.595Z,1002.44
2023-03-29T05:35:14.606Z,1002.39
2023-03-29T05:36:14.566Z,1002.42
2023-03-29T05:37:14.535Z,1002.42
2023-03-29T05:38:14.534Z,1002.49
2023-03-29T05:39:14.516Z,1002.48
2023-03-29T05:40:14.592Z,1002.46
2023-03-29T05:41:14.515Z,1002.43
2023-03-29T05:42:14.489Z,1002.38
2023-03-29T05:43:14.453Z,1002.38
2023-03-29T05:44:14.453Z,1002.44
2023-03-29T05:45:14.444Z,1002.43
2023-03-29T05:46:14.478Z,1002.42
2023-03-29T05:47:14.413Z,1002.42
2023-03-29T05:48:14.404Z,1002.42
2023-03-29T05:49:14.386Z,1002.40
2023-03-29T05:50:14.350Z,1002.43
2023-03-29T05:51:14.377Z,1002.44
2023-03-29T05:52:14.346Z,1002.49
2023-03-29T05:53:14.328Z,1002.51
2023-03-29T05:54:14.323Z,1002.55
2023-03-29T05:55:14.306Z,1002.55
2023-03-29T05:56:14.313Z,1002.52
2023-03-29T05:57:14.358Z,1002.53
2023-03-29T05:58:14.269Z,1002.51
2023-03-29T05:59:14.251Z,1002.48
2023-03-29T06:00:14.289Z,1002.50
2023-03-29T06:01:14.239Z,1002.47
2023-03-29T06:02:14.271Z,1002.44
2023-03-29T06:03:20.932Z,1002.44
2023-03-29T06:04:15.317Z,1002.45
2023-03-29T06:05:14.176Z,1002.43
2023-03-29T06:06:14.186Z,1002.43
2023-03-29T06:07:14.141Z,1002.45
2023-03-29T06:08:14.146Z,1002.48
2023-03-29T06:09:14.126Z,1002.47
2023-03-29T06:10:14.126Z,1002.45
2023-03-29T06:11:14.114Z,1002.45
2023-03-29T06:12:14.090Z,1002.41
2023-03-29T06:13:14.082Z,1002.39
2023-03-29T06:14:14.073Z,1002.41
2023-03-29T06:15:14.046Z,1002.39
2023-03-29T06:16:14.070Z,1002.41
2023-03-29T06:17:14.059Z,1002.41
2023-03-29T06:18:14.056Z,1002.40
2023-03-29T06:19:13.984Z,1002.42
2023-03-29T06:20:13.996Z,1002.42
2023-03-29T06:21:14.343Z,1002.38
2023-03-29T06:22:14.978Z,1002.43
2023-03-29T06:23:13.938Z,1002.41
2023-03-29T06:24:13.945Z,1002.43
2023-03-29T06:25:13.912Z,1002.40
2023-03-29T06:26:13.950Z,1002.40
2023-03-29T06:27:13.890Z,1002.38
2023-03-29T06:28:13.888Z,1002.37
2023-03-29T06:29:13.868Z,1002.37
2023-03-29T06:30:13.868Z,1002.35
2023-03-29T06:31:13.872Z,1002.37
2023-03-29T06:32:13.844Z,1002.41
2023-03-29T06:33:13.815Z,1002.43
2023-03-29T06:34:13.811Z,1002.41
2023-03-29T06:35:13.827Z,1002.44
2023-03-29T06:36:13.875Z,1002.41
2023-03-29T06:37:13.757Z,1002.43
2023-03-29T06:38:13.775Z,1002.46
2023-03-29T06:39:13.733Z,1002.50
2023-03-29T06:40:13.730Z,1002.47
2023-03-29T06:41:13.742Z,1002.44
2023-03-29T06:42:21.153Z,1002.43
2023-03-29T06:43:14.691Z,1002.44
2023-03-29T06:44:13.670Z,1002.45
2023-03-29T06:45:13.702Z,1002.44
2023-03-29T06:46:13.680Z,1002.48
2023-03-29T06:47:13.710Z,1002.49
2023-03-29T06:48:13.630Z,1002.48
2023-03-29T06:49:13.659Z,1002.53
2023-03-29T06:50:13.612Z,1002.50
2023-03-29T06:51:13.606Z,1002.48
2023-03-29T06:52:13.579Z,1002.50
2023-03-29T06:53:13.664Z,1002.50
2023-03-29T06:54:13.632Z,1002.50
2023-03-29T06:55:13.528Z,1002.53
2023-03-29T06:56:13.785Z,1002.55
2023-03-29T06:57:13.570Z,1002.58
2023-03-29T06:58:13.492Z,1002.56
2023-03-29T06:59:13.477Z,1002.57
2023-03-29T07:00:13.483Z,1002.56
2023-03-29T07:01:13.539Z,1002.64
2023-03-29T07:02:13.483Z,1002.61
2023-03-29T07:03:13.528Z,1002.61
2023-03-29T07:04:13.451Z,1002.64
2023-03-29T07:05:13.432Z,1002.63
2023-03-29T07:06:13.457Z,1002.68
2023-03-29T07:07:13.457Z,1002.71
2023-03-29T07:08:13.362Z,1002.70
2023-03-29T07:09:13.344Z,1002.73
2023-03-29T07:10:13.335Z,1002.75
2023-03-29T07:11:13.331Z,1002.73
2023-03-29T07:12:13.311Z,1002.70
2023-03-29T07:13:13.394Z,1002.71
2023-03-29T07:14:13.347Z,1002.67
2023-03-29T07:15:13.292Z,1002.66
2023-03-29T07:16:13.421Z,1002.66
2023-03-29T07:17:13.314Z,1002.63
2023-03-29T07:18:13.233Z,1002.60
2023-03-29T07:19:13.212Z,1002.62
2023-03-29T07:20:13.220Z,1002.64
2023-03-29T07:21:13.228Z,1002.65
2023-03-29T07:22:13.178Z,1002.63
2023-03-29T07:23:13.179Z,1002.67
2023-03-29T07:24:13.164Z,1002.66
2023-03-29T07:25:13.153Z,1002.66
2023-03-29T07:26:13.144Z,1002.67
2023-03-29T07:27:13.109Z,1002.66
2023-03-29T07:28:13.104Z,1002.69
2023-03-29T07:29:13.090Z,1002.72
2023-03-29T07:30:13.074Z,1002.69
2023-03-29T07:31:13.065Z,1002.72
2023-03-29T07:32:13.101Z,1002.70
2023-03-29T07:33:13.241Z,1002.69
2023-03-29T07:34:13.015Z,1002.73
2023-03-29T07:35:13.011Z,1002.74
2023-03-29T07:36:13.026Z,1002.76
2023-03-29T07:37:13.008Z,1002.81
2023-03-29T07:38:12.959Z,1002.76
2023-03-29T07:39:12.954Z,1002.80
2023-03-29T07:40:12.947Z,1002.81
2023-03-29T07:41:12.937Z,1002.80
2023-03-29T07:42:12.933Z,1002.82
2023-03-29T07:43:12.911Z,1002.80
2023-03-29T07:44:12.880Z,1002.82
2023-03-29T07:45:12.874Z,1002.85
2023-03-29T07:46:12.936Z,1002.87
2023-03-29T07:47:12.866Z,1002.86
2023-03-29T07:48:12.959Z,1002.84
2023-03-29T07:49:12.826Z,1002.87
2023-03-29T07:50:12.844Z,1002.82
2023-03-29T07:51:12.799Z,1002.75
2023-03-29T07:52:12.814Z,1002.76
2023-03-29T07:53:12.781Z,1002.72
2023-03-29T07:54:12.752Z,1002.70
2023-03-29T07:55:13.081Z,1002.75
2023-03-29T07:56:12.735Z,1002.77
2023-03-29T07:57:12.776Z,1002.78
2023-03-29T07:58:12.692Z,1002.78
2023-03-29T07:59:12.703Z,1002.82
2023-03-29T08:00:12.666Z,1002.78
2023-03-29T08:01:15.240Z,1002.76
2023-03-29T08:02:12.644Z,1002.75
2023-03-29T08:03:12.724Z,1002.75
2023-03-29T08:04:12.745Z,1002.70
2023-03-29T08:05:12.647Z,1002.70
2023-03-29T08:06:12.598Z,1002.69
2023-03-29T08:07:12.726Z,1002.74
2023-03-29T08:08:12.572Z,1002.72
2023-03-29T08:09:12.566Z,1002.74
2023-03-29T08:10:12.776Z,1002.76
2023-03-29T08:11:12.657Z,1002.73
2023-03-29T08:12:12.541Z,1002.72
2023-03-29T08:13:12.495Z,1002.72
2023-03-29T08:14:12.491Z,1002.73
2023-03-29T08:15:12.474Z,1002.71
2023-03-29T08:16:12.528Z,1002.72
2023-03-29T08:17:12.593Z,1002.69
2023-03-29T08:18:12.493Z,1002.70
2023-03-29T08:19:12.441Z,1002.74
2023-03-29T08:20:12.422Z,1002.76
2023-03-29T08:21:12.414Z,1002.74
2023-03-29T08:22:12.452Z,1002.73
2023-03-29T08:23:12.394Z,1002.73
2023-03-29T08:24:12.362Z,1002.71
2023-03-29T08:25:12.358Z,1002.74
2023-03-29T08:26:12.351Z,1002.74
2023-03-29T08:27:12.348Z,1002.68
2023-03-29T08:28:12.316Z,1002.69
2023-03-29T08:29:12.307Z,1002.63
2023-03-29T08:30:12.287Z,1002.64
2023-03-29T08:31:12.335Z,1002.65
2023-03-29T08:32:12.279Z,1002.63
2023-03-29T08:33:12.333Z,1002.65
2023-03-29T08:34:12.239Z,1002.65
2023-03-29T08:35:12.218Z,1002.66
2023-03-29T08:36:12.225Z,1002.65
2023-03-29T08:37:12.217Z,1002.63
2023-03-29T08:38:12.175Z,1002.61
2023-03-29T08:39:12.179Z,1002.62
2023-03-29T08:40:12.161Z,1002.59
2023-03-29T08:41:12.197Z,1002.61
2023-03-29T08:42:12.169Z,1002.59
2023-03-29T08:43:12.131Z,1002.57
2023-03-29T08:44:12.117Z,1002.59
2023-03-29T08:45:12.107Z,1002.57
2023-03-29T08:46:12.119Z,1002.56
2023-03-29T08:47:12.097Z,1002.55
2023-03-29T08:48:12.078Z,1002.61
2023-03-29T08:49:12.066Z,1002.62
2023-03-29T08:50:12.037Z,1002.65
2023-03-29T08:51:12.029Z,1002.64
2023-03-29T08:52:12.027Z,1002.62
2023-03-29T08:53:12.026Z,1002.64
2023-03-29T08:54:12.007Z,1002.63
2023-03-29T08:55:11.961Z,1002.58
2023-03-29T08:56:11.957Z,1002.56
2023-03-29T08:57:12.028Z,1002.57
2023-03-29T08:58:11.941Z,1002.54
2023-03-29T08:59:11.927Z,1002.57
2023-03-29T09:00:11.904Z,1002.58
2023-03-29T09:01:11.878Z,1002.62
2023-03-29T09:02:11.950Z,1002.62
2023-03-29T09:03:11.964Z,1002.60
2023-03-29T09:04:11.953Z,1002.61
2023-03-29T09:05:11.837Z,1002.58
2023-03-29T09:06:11.827Z,1002.54
2023-03-29T09:07:11.881Z,1002.59
2023-03-29T09:08:11.799Z,1002.57
2023-03-29T09:09:11.796Z,1002.55
2023-03-29T09:10:11.767Z,1002.56
2023-03-29T09:11:11.766Z,1002.59
2023-03-29T09:12:11.738Z,1002.60
2023-03-29T09:13:11.775Z,1002.59
2023-03-29T09:14:11.742Z,1002.54
2023-03-29T09:15:11.716Z,1002.56
2023-03-29T09:16:11.736Z,1002.59
2023-03-29T09:17:11.677Z,1002.55
2023-03-29T09:18:11.749Z,1002.54
2023-03-29T09:19:11.659Z,1002.54
2023-03-29T09:20:11.653Z,1002.54
2023-03-29T09:21:11.627Z,1002.51
2023-03-29T09:22:11.604Z,1002.51
2023-03-29T09:23:11.616Z,1002.53
2023-03-29T09:24:11.576Z,1002.53
2023-03-29T09:25:11.572Z,1002.51
2023-03-29T09:26:11.537Z,1002.45
2023-03-29T09:27:11.540Z,1002.50
2023-03-29T09:28:11.547Z,1002.50
2023-03-29T09:29:11.511Z,1002.50
2023-03-29T09:30:11.500Z,1002.47
2023-03-29T09:31:11.497Z,1002.50
2023-03-29T09:32:11.477Z,1002.50
2023-03-29T09:33:11.545Z,1002.45
2023-03-29T09:34:12.612Z,1002.51
2023-03-29T09:35:11.638Z,1002.52
2023-03-29T09:36:11.472Z,1002.51
2023-03-29T09:37:11.399Z,1002.53
2023-03-29T09:38:11.400Z,1002.48
2023-03-29T09:39:11.387Z,1002.51
2023-03-29T09:40:11.381Z,1002.48
2023-03-29T09:41:11.364Z,1002.52
2023-03-29T09:42:11.328Z,1002.53
2023-03-29T09:43:11.337Z,1002.51
2023-03-29T09:44:20.758Z,1002.54
2023-03-29T09:45:12.295Z,1002.52
2023-03-29T09:46:11.379Z,1002.47
2023-03-29T09:47:11.265Z,1002.44
2023-03-29T09:48:11.307Z,1002.49
2023-03-29T09:49:11.252Z,1002.41
2023-03-29T09:50:19.802Z,1002.45
2023-03-29T09:51:12.225Z,1002.44
2023-03-29T09:52:11.199Z,1002.46
2023-03-29T09:53:11.210Z,1002.46
2023-03-29T09:54:11.178Z,1002.49
2023-03-29T09:55:11.166Z,1002.46
2023-03-29T09:56:11.162Z,1002.41
2023-03-29T09:57:11.198Z,1002.40
2023-03-29T09:58:11.134Z,1002.39
2023-03-29T09:59:11.110Z,1002.36
2023-03-29T10:01:09.150Z,1002.38
2023-03-29T10:02:09.130Z,1002.35
2023-03-29T10:03:10.681Z,1002.34
2023-03-29T10:04:09.120Z,1002.34
2023-03-29T10:05:09.086Z,1002.32
2023-03-29T10:06:09.069Z,1002.30
2023-03-29T10:07:09.029Z,1002.28
2023-03-29T10:08:09.047Z,1002.24
2023-03-29T10:09:09.012Z,1002.21
2023-03-29T10:10:09.079Z,1002.20
2023-03-29T10:11:09.003Z,1002.18
2023-03-29T10:12:09.010Z,1002.17
2023-03-29T10:13:08.970Z,1002.17
2023-03-29T10:14:08.957Z,1002.11
2023-03-29T10:15:13.979Z,1002.13
2023-03-29T10:16:10.102Z,1002.11
2023-03-29T10:17:08.905Z,1002.15
2023-03-29T10:18:08.937Z,1002.17
2023-03-29T10:19:08.887Z,1002.16
2023-03-29T10:20:10.100Z,1002.17
2023-03-29T10:21:08.849Z,1002.17
2023-03-29T10:22:08.850Z,1002.11
2023-03-29T10:23:08.818Z,1002.10
2023-03-29T10:24:08.837Z,1002.07
2023-03-29T10:25:08.799Z,1002.02
2023-03-29T10:26:08.806Z,1002.01
2023-03-29T10:27:08.764Z,1002.00
2023-03-29T10:28:08.775Z,1001.98
2023-03-29T10:29:08.750Z,1001.96
2023-03-29T10:30:08.743Z,1001.95
2023-03-29T10:31:08.751Z,1001.92
2023-03-29T10:32:08.752Z,1001.90
2023-03-29T10:33:08.704Z,1001.94
2023-03-29T10:34:08.700Z,1001.93
2023-03-29T10:35:08.704Z,1001.89
2023-03-29T10:36:08.671Z,1001.92
2023-03-29T10:37:08.695Z,1001.93
2023-03-29T10:38:08.627Z,1001.94
2023-03-29T10:39:08.633Z,1001.96
2023-03-29T10:40:08.626Z,1001.94
2023-03-29T10:41:08.602Z,1001.96
2023-03-29T10:42:08.589Z,1001.96
2023-03-29T10:43:08.572Z,1002.00
2023-03-29T10:44:08.569Z,1001.97
2023-03-29T10:45:08.524Z,1002.02
2023-03-29T10:46:08.543Z,1002.01
2023-03-29T10:47:08.503Z,1002.02
2023-03-29T10:48:08.514Z,1002.02
2023-03-29T10:49:08.491Z,1002.01
2023-03-29T10:50:08.466Z,1002.03
2023-03-29T10:51:08.500Z,1002.02
2023-03-29T10:52:08.531Z,1002.01
2023-03-29T10:53:08.422Z,1001.96
2023-03-29T10:54:08.432Z,1001.94
2023-03-29T10:55:08.397Z,1001.91
2023-03-29T10:56:08.384Z,1001.88
2023-03-29T10:57:08.508Z,1001.86
2023-03-29T10:58:08.491Z,1001.87
2023-03-29T10:59:08.376Z,1001.88
2023-03-29T11:00:08.334Z,1001.87
2023-03-29T11:01:08.352Z,1001.83
2023-03-29T11:02:08.318Z,1001.84
2023-03-29T11:03:08.368Z,1001.84
2023-03-29T11:04:08.393Z,1001.87
2023-03-29T11:05:08.276Z,1001.86
2023-03-29T11:06:08.325Z,1001.87
2023-03-29T11:07:08.234Z,1001.89
2023-03-29T11:08:08.217Z,1001.87
2023-03-29T11:09:08.237Z,1001.84
2023-03-29T11:10:08.210Z,1001.79
2023-03-29T11:11:08.179Z,1001.79
2023-03-29T11:12:15.607Z,1001.79
2023-03-29T11:13:09.145Z,1001.73
2023-03-29T11:14:08.173Z,1001.74
2023-03-29T11:15:08.195Z,1001.76
2023-03-29T11:16:08.200Z,1001.77
2023-03-29T11:17:08.091Z,1001.75
2023-03-29T11:18:08.101Z,1001.70
2023-03-29T11:19:08.080Z,1001.72
2023-03-29T11:20:08.076Z,1001.69
2023-03-29T11:21:10.749Z,1001.67
2023-03-29T11:22:08.033Z,1001.67
2023-03-29T11:23:08.007Z,1001.69
2023-03-29T11:24:08.002Z,1001.69
2023-03-29T11:25:08.017Z,1001.68
2023-03-29T11:26:07.976Z,1001.65
2023-03-29T11:27:07.973Z,1001.66
2023-03-29T11:28:07.956Z,1001.67
2023-03-29T11:29:07.930Z,1001.66
2023-03-29T11:30:07.992Z,1001.64
2023-03-29T11:31:08.004Z,1001.62
2023-03-29T11:32:07.906Z,1001.57
2023-03-29T11:33:07.877Z,1001.56
2023-03-29T11:34:07.888Z,1001.54
2023-03-29T11:35:07.866Z,1001.58
2023-03-29T11:36:07.884Z,1001.54
2023-03-29T11:37:07.842Z,1001.53
2023-03-29T11:38:07.835Z,1001.51
2023-03-29T11:39:07.815Z,1001.51
2023-03-29T11:40:07.862Z,1001.50
2023-03-29T11:41:07.791Z,1001.51
2023-03-29T11:42:07.774Z,1001.52
2023-03-29T11:43:07.759Z,1001.51
2023-03-29T11:44:07.756Z,1001.50
2023-03-29T11:45:07.745Z,1001.49
2023-03-29T11:46:07.826Z,1001.50
2023-03-29T11:47:07.704Z,1001.52
2023-03-29T11:48:07.739Z,1001.50
2023-03-29T11:49:07.677Z,1001.50
2023-03-29T11:50:07.712Z,1001.49
2023-03-29T11:51:07.648Z,1001.49
2023-03-29T11:52:07.683Z,1001.50
2023-03-29T11:53:07.616Z,1001.45
2023-03-29T11:54:07.610Z,1001.41
2023-03-29T11:55:07.614Z,1001.43
2023-03-29T11:56:07.576Z,1001.39
2023-03-29T11:57:07.587Z,1001.35
2023-03-29T11:58:07.560Z,1001.34
2023-03-29T11:59:07.591Z,1001.35
2023-03-29T12:00:07.609Z,1001.27
2023-03-29T12:01:07.531Z,1001.25
2023-03-29T12:02:07.596Z,1001.21
2023-03-29T12:03:07.568Z,1001.23
2023-03-29T12:04:07.564Z,1001.24
2023-03-29T12:05:07.467Z,1001.21
2023-03-29T12:06:07.459Z,1001.21